Time;durP1;ratioP1;P1;durP2;ratioP2;P2;SDS_P1;SDS_P2;PMS_P1;PMS_P2;Temp;Humidity;BMP_temperature;BMP_pressure;BME280_temperature;BME280_humidity;BME280_pressure;Samples;Min_cycle;Max_cycle;Signal;HPM_P1;HPM_P2
2023/09/17 00:05:46;;;;;;;7.40;4.82;;;22.70;83.60;;;;;;10866980;32;20364;-75
2023/09/17 00:11:49;;;;;;;6.40;4.45;;;22.70;83.70;;;;;;10866778;32;20024;-75
2023/09/17 00:17:52;;;;;;;10.02;5.30;;;22.60;83.60;;;;;;10865936;32;20020;-75
2023/09/17 00:23:55;;;;;;;9.43;5.50;;;22.60;83.70;;;;;;10865886;32;20042;-75
2023/09/17 00:29:57;;;;;;;8.90;5.45;;;22.50;83.70;;;;;;10852090;32;20467;-75
2023/09/17 00:35:59;;;;;;;8.10;4.87;;;22.40;83.70;;;;;;10866134;32;20038;-75
2023/09/17 00:42:02;;;;;;;7.00;4.28;;;22.40;83.70;;;;;;10865899;32;20393;-75
2023/09/17 00:48:04;;;;;;;9.07;5.95;;;22.50;83.80;;;;;;10865542;32;20024;-76
2023/09/17 00:54:09;;;;;;;11.48;5.90;;;22.60;83.90;;;;;;10852191;32;20063;-75
2023/09/17 01:00:12;;;;;;;9.20;6.07;;;22.50;83.80;;;;;;10864710;32;20019;-75
2023/09/17 01:06:14;;;;;;;7.55;4.80;;;22.50;83.90;;;;;;10864686;32;20054;-75
2023/09/17 01:12:17;;;;;;;8.13;4.90;;;22.50;83.90;;;;;;10865152;32;20444;-75
2023/09/17 01:18:21;;;;;;;7.25;4.50;;;22.50;83.90;;;;;;10862996;32;20049;-76
2023/09/17 01:24:40;;;;;;;9.07;5.43;;;22.50;83.90;;;;;;10864155;32;20019;-75
2023/09/17 01:30:42;;;;;;;9.98;4.90;;;22.50;84.20;;;;;;10863844;32;20036;-76
2023/09/17 01:36:45;;;;;;;7.35;4.72;;;22.40;84.40;;;;;;10863716;32;20019;-76
2023/09/17 01:42:48;;;;;;;8.77;5.70;;;22.40;84.30;;;;;;10863668;32;20055;-75
2023/09/17 01:48:51;;;;;;;9.65;5.72;;;22.30;84.30;;;;;;10850429;32;20020;-75
2023/09/17 01:54:54;;;;;;;7.93;5.37;;;22.20;84.30;;;;;;10863728;32;20390;-75
2023/09/17 02:00:56;;;;;;;9.18;5.97;;;22.20;84.40;;;;;;10838366;32;20035;-75
2023/09/17 02:06:58;;;;;;;11.48;5.97;;;22.20;84.40;;;;;;10837778;32;20062;-75
2023/09/17 02:13:01;;;;;;;13.57;5.32;;;22.10;84.40;;;;;;10863822;32;20028;-75
2023/09/17 02:19:03;;;;;;;9.13;5.78;;;22.10;84.50;;;;;;10862690;32;20028;-75
2023/09/17 02:25:09;;;;;;;7.93;5.07;;;22.20;84.60;;;;;;10862387;32;20077;-75
2023/09/17 02:31:11;;;;;;;7.07;5.37;;;22.10;84.40;;;;;;10862705;32;20028;-75
2023/09/17 02:37:13;;;;;;;9.27;6.93;;;22.10;84.40;;;;;;10862009;32;20034;-75
2023/09/17 02:43:15;;;;;;;7.60;5.55;;;22.10;84.50;;;;;;10862535;32;20397;-75
2023/09/17 02:49:21;;;;;;;10.38;6.30;;;22.20;84.40;;;;;;10862116;32;20082;-76
2023/09/17 02:55:23;;;;;;;9.55;6.45;;;22.10;84.30;;;;;;10862309;32;20424;-75
2023/09/17 03:01:26;;;;;;;9.23;6.57;;;22.10;84.50;;;;;;10862131;32;20023;-75
2023/09/17 03:07:28;;;;;;;11.40;6.72;;;22.00;84.90;;;;;;10847903;32;20097;-75
2023/09/17 03:13:30;;;;;;;9.30;6.47;;;22.00;84.90;;;;;;10834971;32;20084;-75
2023/09/17 03:19:32;;;;;;;9.93;6.72;;;21.90;84.90;;;;;;10861759;32;20465;-75
2023/09/17 03:25:35;;;;;;;8.30;5.68;;;21.90;84.90;;;;;;10861618;32;20391;-75
2023/09/17 03:31:38;;;;;;;8.52;5.05;;;22.00;85.00;;;;;;10861368;32;20101;-75
2023/09/17 03:37:43;;;;;;;9.73;5.32;;;22.00;85.00;;;;;;10848489;32;20028;-75
2023/09/17 03:43:45;;;;;;;6.97;4.78;;;21.80;85.00;;;;;;10861240;32;20428;-75
2023/09/17 03:49:48;;;;;;;8.93;6.25;;;21.80;85.00;;;;;;10860253;32;20055;-75
2023/09/17 03:55:50;;;;;;;11.23;8.52;;;21.80;85.00;;;;;;10847049;32;20050;-75
2023/09/17 04:01:53;;;;;;;10.10;4.97;;;21.80;85.20;;;;;;10860045;32;20015;-75
2023/09/17 04:07:55;;;;;;;10.82;8.18;;;21.90;85.00;;;;;;10846004;32;20023;-75
2023/09/17 04:13:57;;;;;;;13.62;8.52;;;21.80;85.10;;;;;;10866238;32;20043;-75
2023/09/17 04:20:00;;;;;;;8.27;7.00;;;21.80;85.10;;;;;;10866601;32;20024;-75
2023/09/17 04:26:02;;;;;;;10.88;8.05;;;21.80;85.20;;;;;;10865879;32;20034;-75
2023/09/17 04:32:05;;;;;;;9.38;7.18;;;21.80;85.10;;;;;;10865725;32;20054;-75
2023/09/17 04:38:07;;;;;;;9.93;6.97;;;21.80;85.20;;;;;;10865462;32;20016;-75
2023/09/17 04:44:10;;;;;;;11.73;7.72;;;21.80;85.50;;;;;;10865403;32;20023;-75
2023/09/17 04:50:12;;;;;;;10.48;6.53;;;21.80;85.40;;;;;;10851924;32;20414;-75
2023/09/17 04:56:15;;;;;;;11.30;8.50;;;21.80;85.60;;;;;;10865040;32;20024;-75
2023/09/17 05:02:17;;;;;;;10.55;8.65;;;21.80;85.60;;;;;;10865423;32;20019;-75
2023/09/17 05:08:19;;;;;;;12.88;10.13;;;21.80;85.40;;;;;;10864714;32;20397;-75
2023/09/17 05:14:22;;;;;;;12.43;8.88;;;21.80;85.60;;;;;;10864428;32;20051;-75
2023/09/17 05:20:25;;;;;;;12.93;9.38;;;21.80;85.60;;;;;;10864115;32;20046;-75
2023/09/17 05:26:28;;;;;;;11.23;7.95;;;21.70;85.50;;;;;;10865388;32;20069;-75
2023/09/17 05:32:31;;;;;;;11.45;9.20;;;21.70;85.50;;;;;;10864004;32;20361;-75
2023/09/17 05:38:33;;;;;;;18.98;9.65;;;21.70;85.40;;;;;;10863656;32;20062;-75
2023/09/17 05:44:37;;;;;;;9.38;7.37;;;21.70;85.30;;;;;;10864183;32;20032;-75
2023/09/17 05:50:39;;;;;;;7.72;6.28;;;21.70;85.40;;;;;;10863411;32;20332;-75
2023/09/17 05:56:42;;;;;;;10.07;8.48;;;21.80;85.40;;;;;;10859381;32;20027;-75
2023/09/17 06:02:44;;;;;;;12.75;8.88;;;21.80;85.30;;;;;;10845969;32;20172;-76
2023/09/17 06:08:50;;;;;;;15.05;8.02;;;21.80;85.30;;;;;;10864127;32;20028;-76
2023/09/17 06:14:52;;;;;;;10.63;8.18;;;21.90;85.30;;;;;;10862669;32;20027;-76
2023/09/17 06:20:56;;;;;;;12.93;9.45;;;22.00;85.20;;;;;;10862564;32;20023;-75
2023/09/17 06:26:59;;;;;;;9.80;6.65;;;22.00;85.10;;;;;;10863078;32;20341;-75
2023/09/17 06:33:03;;;;;;;11.75;9.02;;;22.00;84.90;;;;;;10861410;32;20062;-75
2023/09/17 06:39:06;;;;;;;12.07;9.13;;;21.90;85.00;;;;;;10862083;32;20046;-75
2023/09/17 06:45:09;;;;;;;12.90;9.90;;;21.90;85.00;;;;;;10862574;32;20065;-76
2023/09/17 06:51:11;;;;;;;14.75;11.55;;;22.00;84.70;;;;;;10651080;27;7052866;-76
2023/09/17 06:57:13;;;;;;;12.93;10.20;;;22.10;84.80;;;;;;10862740;32;20015;-75
2023/09/17 07:03:15;;;;;;;12.68;10.57;;;22.20;84.60;;;;;;10840766;32;20073;-78
2023/09/17 07:09:17;;;;;;;17.20;13.27;;;22.20;84.50;;;;;;10856054;32;20031;-76
2023/09/17 07:15:21;;;;;;;15.95;12.45;;;22.30;84.50;;;;;;10843637;32;20039;-77
2023/09/17 07:21:24;;;;;;;14.23;10.30;;;22.30;84.50;;;;;;10861076;32;20034;-76
2023/09/17 07:27:28;;;;;;;19.52;11.10;;;22.50;84.50;;;;;;10860895;32;20019;-76
2023/09/17 07:33:30;;;;;;;15.65;11.40;;;22.50;84.60;;;;;;10860848;32;20024;-78
2023/09/17 07:39:32;;;;;;;19.17;13.73;;;22.70;84.40;;;;;;10860722;32;20028;-75
2023/09/17 07:45:34;;;;;;;13.98;9.93;;;22.80;84.10;;;;;;10852433;32;20027;-77
2023/09/17 07:51:36;;;;;;;18.17;14.27;;;22.90;84.10;;;;;;10864660;32;20035;-77
2023/09/17 07:57:38;;;;;;;15.75;11.27;;;23.10;84.20;;;;;;10852822;32;20066;-76
2023/09/17 08:03:40;;;;;;;18.27;10.82;;;23.10;84.20;;;;;;10867085;32;20024;-76
2023/09/17 08:09:43;;;;;;;15.27;11.52;;;23.20;84.30;;;;;;10867153;32;20424;-77
2023/09/17 08:15:49;;;;;;;13.60;10.02;;;23.30;84.10;;;;;;10866811;32;20353;-75
2023/09/17 08:21:51;;;;;;;16.75;13.02;;;23.30;83.90;;;;;;10865499;32;20058;-75
2023/09/17 08:27:53;;;;;;;12.60;8.65;;;23.40;83.60;;;;;;10865837;32;20020;-70
2023/09/17 08:33:55;;;;;;;13.05;9.15;;;23.40;83.40;;;;;;10836278;32;20039;-70
2023/09/17 08:39:58;;;;;;;10.52;8.05;;;23.60;83.30;;;;;;10865593;32;20046;-71
2023/09/17 08:46:03;;;;;;;13.35;8.85;;;23.70;82.80;;;;;;10865221;32;20024;-70
2023/09/17 08:52:07;;;;;;;11.68;9.95;;;23.80;82.50;;;;;;10852041;32;20054;-70
2023/09/17 08:58:16;;;;;;;12.82;8.75;;;23.90;82.30;;;;;;10851164;32;20035;-70
2023/09/17 09:04:20;;;;;;;10.43;7.75;;;24.00;82.10;;;;;;10851127;32;20075;-71
2023/09/17 09:10:24;;;;;;;20.95;15.38;;;24.10;81.90;;;;;;10865183;32;20043;-70
2023/09/17 09:16:28;;;;;;;11.27;8.98;;;24.30;81.60;;;;;;10865144;32;20021;-71
2023/09/17 09:22:30;;;;;;;19.12;13.18;;;24.30;81.10;;;;;;10860379;32;20024;-71
2023/09/17 09:28:32;;;;;;;8.88;6.30;;;24.30;80.50;;;;;;10863319;32;20023;-71
2023/09/17 09:34:35;;;;;;;8.55;5.78;;;24.40;80.50;;;;;;10864094;32;20042;-71
2023/09/17 09:40:38;;;;;;;12.95;6.50;;;24.50;80.40;;;;;;10863092;32;20035;-70
2023/09/17 09:46:40;;;;;;;7.78;5.35;;;24.80;79.90;;;;;;10828858;32;20051;-70
2023/09/17 09:52:42;;;;;;;4.68;3.50;;;24.90;78.70;;;;;;10826247;33;20035;-70
2023/09/17 09:58:45;;;;;;;6.32;4.35;;;25.10;78.50;;;;;;10825090;32;20032;-70
2023/09/17 10:04:48;;;;;;;4.85;3.47;;;25.20;77.80;;;;;;10821054;32;20032;-70
2023/09/17 10:10:50;;;;;;;6.65;3.40;;;25.20;77.80;;;;;;10825797;33;20398;-70
2023/09/17 10:16:54;;;;;;;6.95;4.65;;;25.20;77.20;;;;;;10809260;33;20027;-72
2023/09/17 10:22:58;;;;;;;6.05;3.95;;;25.30;76.60;;;;;;10813980;33;20310;-71
2023/09/17 10:29:03;;;;;;;5.53;3.92;;;25.50;76.20;;;;;;10809627;33;20058;-70
2023/09/17 10:35:15;;;;;;;7.68;4.35;;;25.70;75.60;;;;;;10800224;32;20066;-71
2023/09/17 10:41:21;;;;;;;7.07;4.47;;;25.70;74.90;;;;;;10824885;33;20042;-70
2023/09/17 10:47:25;;;;;;;6.80;4.20;;;25.60;74.60;;;;;;10825482;33;20038;-70
2023/09/17 10:53:28;;;;;;;7.70;4.25;;;25.50;75.00;;;;;;10825169;33;20028;-70
2023/09/17 10:59:30;;;;;;;7.15;4.50;;;25.60;74.80;;;;;;10824519;33;20016;-70
2023/09/17 11:05:33;;;;;;;5.28;3.28;;;25.70;75.00;;;;;;10824286;33;20042;-70
2023/09/17 11:11:35;;;;;;;11.15;6.18;;;26.00;74.30;;;;;;10820088;33;20047;-71
2023/09/17 11:17:38;;;;;;;6.80;4.18;;;26.50;73.30;;;;;;10826563;32;20047;-70
2023/09/17 11:23:44;;;;;;;7.75;4.45;;;26.80;72.50;;;;;;10831727;33;20402;-71
2023/09/17 11:30:02;;;;;;;6.07;4.20;;;26.90;71.50;;;;;;10815640;33;20338;-72
2023/09/17 11:36:10;;;;;;;12.80;5.57;;;27.10;71.30;;;;;;10830715;33;20390;-70
2023/09/17 11:42:14;;;;;;;7.90;3.40;;;26.90;71.10;;;;;;10830552;33;20433;-69
2023/09/17 11:48:16;;;;;;;5.95;4.12;;;26.80;71.60;;;;;;10830641;33;20020;-69
2023/09/17 11:54:20;;;;;;;4.35;3.08;;;26.70;71.80;;;;;;10831955;32;20075;-69
2023/09/17 12:00:29;;;;;;;6.10;3.40;;;26.70;72.00;;;;;;10829879;33;20054;-70
2023/09/17 12:06:38;;;;;;;7.10;4.70;;;26.70;72.00;;;;;;10880544;32;20058;-70
2023/09/17 12:12:43;;;;;;;7.80;5.35;;;26.90;71.80;;;;;;10878466;32;20051;-69
2023/09/17 12:18:46;;;;;;;6.12;3.47;;;26.90;71.20;;;;;;10829224;33;20216;-70
2023/09/17 12:25:19;;;;;;;6.15;3.67;;;26.90;71.20;;;;;;10879921;32;20511;-70
2023/09/17 12:31:21;;;;;;;8.65;4.87;;;26.90;70.70;;;;;;10828135;32;20306;-70
2023/09/17 12:37:25;;;;;;;5.62;3.75;;;26.80;70.70;;;;;;10830033;33;20016;-70
2023/09/17 12:43:36;;;;;;;6.12;3.90;;;26.90;70.90;;;;;;10828895;33;20401;-70
2023/09/17 12:49:42;;;;;;;8.07;4.72;;;26.90;70.50;;;;;;10828285;33;20489;-71
2023/09/17 12:55:44;;;;;;;6.72;4.00;;;27.10;70.60;;;;;;10880325;32;20428;-69
2023/09/17 13:02:11;;;;;;;8.23;4.60;;;27.10;69.70;;;;;;10828846;33;20402;-69
2023/09/17 13:08:13;;;;;;;5.87;2.87;;;27.20;69.60;;;;;;10827925;33;20398;-70
2023/09/17 13:14:15;;;;;;;7.22;3.75;;;27.20;69.50;;;;;;10878199;32;20062;-69
2023/09/17 13:20:18;;;;;;;6.28;3.58;;;27.10;69.60;;;;;;10827007;33;20058;-70
2023/09/17 13:26:20;;;;;;;6.82;4.57;;;27.10;69.50;;;;;;10846587;32;20027;-69
2023/09/17 13:32:22;;;;;;;7.57;3.80;;;27.00;69.40;;;;;;10863532;32;20058;-70
2023/09/17 13:38:41;;;;;;;5.18;3.40;;;27.00;69.80;;;;;;10864572;32;20291;-70
2023/09/17 13:44:44;;;;;;;6.60;4.20;;;27.20;69.60;;;;;;10863356;32;20015;-70
2023/09/17 13:50:51;;;;;;;9.43;4.12;;;27.30;69.70;;;;;;10863025;32;20019;-71
2023/09/17 13:57:26;;;;;;;5.62;3.60;;;27.20;70.10;;;;;;10863464;32;20424;-70
2023/09/17 14:03:57;;;;;;;6.25;4.12;;;27.10;70.80;;;;;;10847508;32;20125;-70
2023/09/17 14:09:59;;;;;;;6.65;5.05;;;27.00;71.20;;;;;;10862374;32;20051;-72
2023/09/17 14:16:02;;;;;;;7.53;4.32;;;27.00;71.70;;;;;;10862158;32;20054;-70
2023/09/17 14:22:23;;;;;;;5.95;3.87;;;27.00;72.40;;;;;;10846306;32;20035;-70
2023/09/17 14:29:00;;;;;;;6.30;4.05;;;27.00;72.30;;;;;;10848837;32;20035;-70
2023/09/17 14:35:04;;;;;;;4.15;2.90;;;26.90;72.40;;;;;;10836147;32;20031;-70
2023/09/17 14:41:59;;;;;;;6.95;3.92;;;26.90;72.80;;;;;;10748516;32;20420;-71
2023/09/17 14:48:02;;;;;;;7.28;4.43;;;27.00;72.70;;;;;;10751236;27;20041;-70
2023/09/17 14:54:05;;;;;;;4.95;3.67;;;27.20;72.70;;;;;;10746586;33;20029;-70
2023/09/17 15:00:13;;;;;;;8.02;3.60;;;27.10;72.50;;;;;;10748598;33;20020;-70
2023/09/17 15:06:16;;;;;;;8.02;5.78;;;27.10;72.70;;;;;;10747950;33;20051;-70
2023/09/17 15:12:18;;;;;;;5.87;3.17;;;27.00;73.20;;;;;;10735517;33;20039;-71
2023/09/17 15:18:20;;;;;;;5.95;4.45;;;27.00;73.20;;;;;;10778690;33;20024;-70
2023/09/17 15:24:23;;;;;;;7.75;3.78;;;27.20;73.00;;;;;;10787666;33;20433;-70
2023/09/17 15:30:25;;;;;;;5.20;3.87;;;27.60;72.40;;;;;;10787220;33;20020;-72
2023/09/17 15:36:27;;;;;;;3.47;2.53;;;27.70;72.00;;;;;;10785020;33;20398;-70
2023/09/17 15:42:30;;;;;;;7.00;3.28;;;27.80;72.00;;;;;;10786727;33;20074;-71
2023/09/17 15:48:34;;;;;;;5.53;3.60;;;27.80;71.80;;;;;;10786398;33;20020;-70
2023/09/17 15:54:37;;;;;;;5.68;3.62;;;27.80;71.80;;;;;;10749253;33;20350;-70
2023/09/17 16:00:39;;;;;;;5.62;3.67;;;27.70;72.20;;;;;;10750965;33;20012;-70
2023/09/17 16:06:41;;;;;;;5.35;2.95;;;27.70;72.10;;;;;;10756588;33;20319;-70
2023/09/17 16:12:44;;;;;;;4.97;2.90;;;27.50;72.30;;;;;;10756888;33;20043;-71
2023/09/17 16:18:46;;;;;;;4.65;2.70;;;27.30;72.70;;;;;;10756261;33;20059;-71
2023/09/17 16:24:50;;;;;;;4.80;3.00;;;27.10;73.00;;;;;;10766290;33;20415;-70
2023/09/17 16:30:52;;;;;;;4.37;3.00;;;26.80;73.20;;;;;;10791065;33;20029;-71
2023/09/17 16:36:54;;;;;;;4.80;2.72;;;26.70;73.70;;;;;;10826823;32;20342;-72
2023/09/17 16:42:57;;;;;;;4.03;2.25;;;26.60;74.00;;;;;;10777803;33;20422;-71
2023/09/17 16:48:59;;;;;;;4.47;2.70;;;26.50;74.20;;;;;;10789516;33;20017;-72
2023/09/17 16:55:01;;;;;;;2.92;1.95;;;26.30;74.50;;;;;;10842642;32;20020;-71
2023/09/17 17:01:04;;;;;;;3.85;2.65;;;26.30;74.90;;;;;;10791317;33;20382;-71
2023/09/17 17:07:06;;;;;;;4.80;3.05;;;26.20;75.00;;;;;;10789528;33;20071;-71
2023/09/17 17:13:09;;;;;;;5.03;3.28;;;26.20;75.10;;;;;;10790882;33;20391;-71
2023/09/17 17:19:11;;;;;;;5.68;3.78;;;26.00;75.40;;;;;;10790423;33;20016;-77
2023/09/17 17:25:17;;;;;;;4.40;3.58;;;25.90;75.60;;;;;;10790795;33;20337;-77
2023/09/17 17:31:21;;;;;;;5.03;3.30;;;25.80;76.00;;;;;;10790057;33;20024;-77
2023/09/17 17:37:24;;;;;;;6.95;3.45;;;25.80;76.10;;;;;;10787086;33;20334;-70
2023/09/17 17:43:26;;;;;;;6.47;3.75;;;25.80;76.20;;;;;;10790234;33;20425;-71
2023/09/17 17:49:28;;;;;;;4.87;3.15;;;25.70;76.60;;;;;;10785688;33;20020;-77
2023/09/17 17:55:31;;;;;;;5.70;3.53;;;25.60;76.80;;;;;;10789426;33;20024;-70
2023/09/17 18:01:33;;;;;;;5.12;3.22;;;25.60;76.90;;;;;;10790391;33;20012;-70
2023/09/17 18:07:38;;;;;;;5.20;3.65;;;25.60;77.00;;;;;;10789038;33;20059;-71
2023/09/17 18:13:41;;;;;;;6.70;3.95;;;25.50;77.30;;;;;;10790568;33;20034;-71
2023/09/17 18:19:43;;;;;;;7.00;4.20;;;25.30;77.70;;;;;;10788565;33;20046;-70
2023/09/17 18:25:46;;;;;;;7.90;3.22;;;25.40;77.70;;;;;;10787196;33;20016;-70
2023/09/17 18:31:48;;;;;;;6.43;3.75;;;25.40;77.90;;;;;;10788047;33;20024;-70
2023/09/17 18:37:50;;;;;;;4.90;3.42;;;25.40;77.90;;;;;;10787955;33;20070;-70
2023/09/17 18:43:52;;;;;;;3.78;2.78;;;25.30;77.90;;;;;;10850799;32;20028;-70
2023/09/17 18:49:54;;;;;;;8.05;3.58;;;25.30;78.20;;;;;;10787853;33;20017;-70
2023/09/17 18:55:57;;;;;;;5.03;2.95;;;25.30;78.40;;;;;;10850990;32;20032;-70
2023/09/17 19:01:59;;;;;;;8.38;3.75;;;25.10;79.00;;;;;;10788726;33;20035;-70
2023/09/17 19:08:01;;;;;;;6.10;3.85;;;25.00;79.50;;;;;;10788551;33;20038;-70
2023/09/17 19:14:03;;;;;;;14.25;3.40;;;24.90;79.50;;;;;;10788363;33;20017;-70
2023/09/17 19:20:06;;;;;;;3.75;2.45;;;24.90;79.40;;;;;;10788295;33;20024;-70
2023/09/17 19:26:12;;;;;;;6.75;3.75;;;24.90;79.70;;;;;;10787026;33;20016;-70
2023/09/17 19:32:15;;;;;;;4.07;2.87;;;24.90;79.80;;;;;;10837748;32;20310;-70
2023/09/17 19:38:17;;;;;;;3.17;2.30;;;24.80;79.70;;;;;;10789128;33;20047;-70
2023/09/17 19:44:20;;;;;;;7.68;3.08;;;24.80;79.70;;;;;;10852577;32;20075;-70
2023/09/17 19:50:23;;;;;;;5.12;3.03;;;24.80;79.70;;;;;;10778517;33;20046;-70
2023/09/17 19:56:25;;;;;;;5.55;3.47;;;24.80;79.70;;;;;;10802805;32;20066;-70
2023/09/17 20:02:27;;;;;;;6.37;3.00;;;24.80;79.80;;;;;;10781758;33;20036;-70
2023/09/17 20:08:29;;;;;;;6.25;4.07;;;24.70;79.90;;;;;;10803160;32;20409;-70
2023/09/17 20:14:32;;;;;;;5.07;3.40;;;24.70;79.90;;;;;;10782170;33;20436;-70
2023/09/17 20:20:34;;;;;;;5.65;3.90;;;24.70;79.80;;;;;;10762671;33;20039;-70
2023/09/17 20:26:36;;;;;;;7.18;3.83;;;24.70;79.90;;;;;;10756304;33;20025;-70
2023/09/17 20:32:38;;;;;;;8.88;4.78;;;24.60;80.00;;;;;;10841778;32;20059;-70
2023/09/17 20:38:45;;;;;;;6.30;3.65;;;24.60;80.00;;;;;;10825992;32;20386;-70
2023/09/17 20:44:47;;;;;;;4.07;2.65;;;24.70;80.30;;;;;;10791532;33;20015;-70
2023/09/17 20:50:49;;;;;;;5.05;2.55;;;24.60;80.40;;;;;;10840898;32;20106;-70
2023/09/17 20:56:53;;;;;;;7.07;3.17;;;24.60;80.50;;;;;;10774739;33;20052;-70
2023/09/17 21:02:55;;;;;;;5.22;3.10;;;24.60;80.80;;;;;;10755289;33;20394;-76
2023/09/17 21:08:59;;;;;;;7.00;4.28;;;24.50;80.90;;;;;;10753534;33;20033;-76
2023/09/17 21:15:01;;;;;;;7.50;5.50;;;24.50;80.90;;;;;;10754220;33;20005;-76
2023/09/17 21:21:03;;;;;;;7.70;4.62;;;24.50;80.90;;;;;;10754553;33;20269;-76
2023/09/17 21:27:06;;;;;;;7.97;4.80;;;24.40;80.90;;;;;;10753918;33;20017;-76
2023/09/17 21:33:08;;;;;;;6.75;4.55;;;24.30;80.90;;;;;;10805610;32;20021;-70
2023/09/17 21:39:11;;;;;;;7.28;5.10;;;24.30;81.00;;;;;;10754307;33;20456;-70
2023/09/17 21:45:13;;;;;;;4.35;3.28;;;24.30;81.10;;;;;;10755201;33;20021;-70
2023/09/17 21:51:16;;;;;;;6.93;4.53;;;24.20;81.10;;;;;;10753419;33;20043;-70
2023/09/17 21:57:20;;;;;;;10.77;6.28;;;24.20;81.40;;;;;;10753166;33;20020;-70
2023/09/17 22:03:22;;;;;;;7.40;5.07;;;24.10;81.90;;;;;;10753992;33;20077;-70
2023/09/17 22:09:25;;;;;;;6.28;4.62;;;24.00;81.90;;;;;;10757491;33;20346;-70
2023/09/17 22:15:27;;;;;;;8.98;5.97;;;24.10;81.90;;;;;;10772802;33;20047;-70
2023/09/17 22:21:29;;;;;;;6.25;4.78;;;24.00;81.80;;;;;;10817446;32;20099;-70
2023/09/17 22:27:32;;;;;;;5.75;4.15;;;24.00;81.80;;;;;;10756915;33;20371;-70
2023/09/17 22:33:34;;;;;;;9.57;7.22;;;24.00;81.80;;;;;;10752073;33;20043;-70
2023/09/17 22:39:39;;;;;;;9.15;6.32;;;24.00;81.90;;;;;;10751885;33;20043;-70
2023/09/17 22:45:41;;;;;;;7.90;6.47;;;23.90;81.80;;;;;;10759651;27;20016;-70
2023/09/17 22:51:44;;;;;;;7.07;4.37;;;24.00;81.90;;;;;;10825371;33;20020;-70
2023/09/17 22:57:46;;;;;;;6.72;5.03;;;23.90;82.00;;;;;;10811079;33;20051;-70
2023/09/17 23:03:54;;;;;;;6.45;4.30;;;23.90;82.10;;;;;;10811410;33;20020;-70
2023/09/17 23:09:56;;;;;;;9.75;5.90;;;23.90;82.20;;;;;;10824433;33;20036;-70
2023/09/17 23:15:58;;;;;;;6.78;4.50;;;23.90;82.10;;;;;;10823891;32;20042;-70
2023/09/17 23:22:00;;;;;;;8.57;5.78;;;23.90;82.20;;;;;;10825316;33;20016;-71
2023/09/17 23:28:05;;;;;;;7.10;5.18;;;23.90;82.50;;;;;;10821801;33;20024;-70
2023/09/17 23:34:07;;;;;;;16.60;4.78;;;23.80;82.50;;;;;;10812091;33;20330;-70
2023/09/17 23:40:10;;;;;;;10.05;5.20;;;23.80;82.50;;;;;;10823689;33;20016;-71
2023/09/17 23:46:13;;;;;;;8.77;6.50;;;23.80;82.80;;;;;;10823579;32;20020;-70
2023/09/17 23:52:15;;;;;;;11.12;7.50;;;23.80;82.90;;;;;;10824042;33;20401;-70
2023/09/17 23:58:17;;;;;;;8.93;6.80;;;23.80;82.80;;;;;;10823391;33;20015;-70
